aviador You're here:

BIRK Decoded Metar

REYKJAVIK in ICELAND
Report Time2017-12-11 09:00:00
UTC Time2017-12-11 09:20:54
Flight Rules vfr VFR
Wind110° at 06 kt
W.Decomp.*RWY 13: 6.0 kt HW 0.5 kt LCW
RWY 06: 2.5 kt HW 5.4 kt RCW
RWY 19: 2.5 kt HW 5.4 kt LCW
W.Rank110° ranks 4
Current wind is below 110° avg. (10.0)
Visibility9999 m
Phenomena:N/A
Clouds:N/A
Expected CloudBase > 2,400 ft AGL from Temp-Dew spread
CeilingNone
Temp-7°C (ISA -22)
Dew Point-13°C (63% RH)
AAT-12.4°C
QNH1005 hPa
Density Alt-2,175 ft
Elevation200 ft
Report Wrong Elevation
Raw Report
BIRK 110900Z 11006KT CAVOK M07/M13 Q1005=

Extra information for BIRK:More info

Metar Taf Metar & Taf Last 4 Metars F.Rules Stats Wind Profile Meteogram Temp Stats Airport Information Weather charts Add Link Nearby VenuesMetar ALERT Operation Metar Decoded Social comments